Mackinaw City, MI (49701)

3:04 PM EST on February 13, 2016 (GMT -0500)
Mackinac Bridge | | Change Station
CLOSE
Current Station
Personal Weather Station
Location: Mackinaw City, MI
Elevation: 587 ft
Nearby Weather Stations

Elev 587 ft 45.79 °N, 84.73 °W | Updated 4 minutes ago

Mostly Cloudy
Mostly Cloudy
7.6 °F
Feels Like 1 °F
N
3.4
Wind Variable Wind from North

Today
High -- | Low -- °F
--% Chance of Precip.
Yesterday
High -- | Low -- °F
Precip. -- in
Pressure 30.40 in
Visibility 10.0 miles
Clouds Scattered Clouds 2300 ft
Overcast 2900 ft
Windchill 1 °F
Dew Point -0 °F
Humidity 70%
Rainfall Not available.
Snow Depth Not available.
7:45 AM 6:02 PM
Waxing Crescent, 33% visible
METAR KMCD 131956Z AUTO 31007KT 10SM SCT023 OVC029 M16/M21 A3040 RMK AO2 T11581211
Pressure 30.40 in
Visibility 10.0 miles
Clouds Scattered Clouds 2300 ft
Overcast 2900 ft
Windchill 1 °F
Dew Point -0 °F
Humidity 70%
Rainfall Not available.
Snow Depth Not available.
7:45 AM 6:02 PM
Waxing Crescent, 33% visible
METAR KMCD 131956Z AUTO 31007KT 10SM SCT023 OVC029 M16/M21 A3040 RMK AO2 T11581211

10-Day Weather Forecast

Almanac

Astronomy

Feb. 13, 2016 Rise Set
Actual Time
Civil Twilight
Nautical Twilight
Astronomical Twilight
Moon
Length of Visible Light
Length of Day
Tomorrow will be .
, % of the Moon is Illuminated

Today's Extremes

State Highs State Lows

Community

WunderPhotos

Upload Photos

1,892,653 photos uploaded!

WunderBlog® & News

Nearby

Air Quality

  Air Quality AQ Index Pollutant
Not available.

Snow Depth

Station Depth Elevation

Earthquake Activity

City Distance Mag. Time & Date
Minimum magnitude displayed is 2.5.

Coastal Water Temperatures

Place Temperature

Stations

Nearby Weather Stations

Station Location Temp. Windchill Dew Point Humidity Wind Precip. Elev Updated Type
                   

Watches & Warnings

There are currently no watches in effect.